Time;durP1;ratioP1;P1;durP2;ratioP2;P2;SDS_P1;SDS_P2;PMS_P1;PMS_P2;Temp;Humidity;BMP_temperature;BMP_pressure;BME280_temperature;BME280_humidity;BME280_pressure;Samples;Min_cycle;Max_cycle;Signal;HPM_P1;HPM_P2
2022/06/02 00:00:40;;;;;;;2.30;2.20;;;12.70;99.90;;;;;;5201337;28;20435;-54
2022/06/02 00:03:39;;;;;;;3.07;2.97;;;12.70;99.90;;;;;;5198165;28;20458;-53
2022/06/02 00:06:21;;;;;;;4.77;2.83;;;12.70;99.90;;;;;;5207532;28;20441;-53
2022/06/02 00:09:26;;;;;;;2.53;2.47;;;12.80;99.90;;;;;;5208755;28;20474;-54
2022/06/02 00:12:29;;;;;;;3.10;2.97;;;12.80;99.90;;;;;;5207370;28;20441;-53
2022/06/02 00:15:12;;;;;;;3.37;3.17;;;12.70;99.90;;;;;;5206646;28;20461;-55
2022/06/02 00:18:08;;;;;;;2.50;2.40;;;12.70;99.90;;;;;;5202305;28;20442;-54
2022/06/02 00:20:48;;;;;;;3.17;2.87;;;12.70;99.90;;;;;;5200646;28;20552;-56
2022/06/02 00:23:27;;;;;;;2.83;2.73;;;12.70;99.90;;;;;;5201259;28;20971;-53
2022/06/02 00:26:12;;;;;;;2.70;2.60;;;12.70;99.90;;;;;;5193774;28;20452;-54
2022/06/02 00:29:05;;;;;;;3.07;2.87;;;12.70;99.90;;;;;;5208217;28;20476;-54
2022/06/02 00:31:51;;;;;;;2.73;2.53;;;12.70;99.90;;;;;;5207175;28;20521;-54
2022/06/02 00:34:42;;;;;;;2.63;2.53;;;12.70;99.90;;;;;;5198649;28;20454;-54
2022/06/02 00:37:28;;;;;;;3.70;3.10;;;12.60;99.90;;;;;;5204318;28;20573;-55
2022/06/02 00:40:00;;;;;;;3.53;2.67;;;12.60;99.90;;;;;;5209305;28;20418;-52
2022/06/02 00:42:49;;;;;;;3.23;2.40;;;12.50;99.90;;;;;;5204494;28;20414;-53
2022/06/02 00:45:21;;;;;;;2.40;2.20;;;12.50;99.90;;;;;;5199949;28;20460;-53
2022/06/02 00:48:04;;;;;;;2.43;2.33;;;12.50;99.90;;;;;;5209075;28;20594;-53
2022/06/02 00:50:41;;;;;;;2.50;2.50;;;12.40;99.90;;;;;;5209653;28;20856;-53
2022/06/02 00:53:34;;;;;;;2.37;2.27;;;12.40;99.90;;;;;;5206281;28;20464;-53
2022/06/02 00:59:26;;;;;;;2.90;2.80;;;12.30;99.90;;;;;;5199832;28;20477;-56
2022/06/02 01:01:56;;;;;;;1.87;1.87;;;12.30;99.90;;;;;;5208867;28;20495;-53
2022/06/02 01:04:27;;;;;;;2.50;2.40;;;12.30;99.90;;;;;;5208785;28;20505;-53
2022/06/02 01:07:10;;;;;;;2.70;2.60;;;12.30;99.90;;;;;;5215062;28;20652;-53
2022/06/02 01:09:43;;;;;;;2.97;2.77;;;12.30;99.90;;;;;;5210158;28;20428;-52
2022/06/02 01:12:30;;;;;;;2.40;2.30;;;12.20;99.90;;;;;;5202239;28;20442;-54
2022/06/02 01:15:22;;;;;;;2.10;2.10;;;12.20;99.90;;;;;;5207218;28;20476;-53
2022/06/02 01:18:19;;;;;;;4.77;2.33;;;12.00;99.90;;;;;;5207105;28;20438;-53
2022/06/02 01:21:27;;;;;;;2.50;2.40;;;12.00;99.90;;;;;;5176967;28;20904;-55
2022/06/02 01:24:37;;;;;;;3.63;2.20;;;11.90;99.90;;;;;;5197073;28;20455;-54
2022/06/02 01:27:18;;;;;;;4.93;2.70;;;11.80;99.90;;;;;;5206738;28;20457;-54
2022/06/02 01:30:03;;;;;;;2.50;2.40;;;11.80;99.90;;;;;;5199134;28;20434;-53
2022/06/02 01:32:47;;;;;;;2.27;2.20;;;11.60;99.90;;;;;;5198618;28;20453;-53
2022/06/02 01:35:29;;;;;;;9.00;3.10;;;11.60;99.90;;;;;;5196651;28;20505;-53
2022/06/02 01:37:59;;;;;;;2.87;2.67;;;11.50;99.90;;;;;;5197056;28;20818;-53
2022/06/02 01:41:10;;;;;;;3.13;2.93;;;11.40;99.90;;;;;;5202931;28;20518;-54
2022/06/02 01:44:16;;;;;;;2.80;2.70;;;11.40;99.90;;;;;;5205335;28;20218;-53
2022/06/02 01:47:10;;;;;;;2.70;2.60;;;11.30;99.90;;;;;;5204236;28;20449;-53
2022/06/02 01:50:05;;;;;;;4.53;2.50;;;11.20;99.90;;;;;;5202037;28;20431;-54
2022/06/02 01:52:46;;;;;;;3.07;2.97;;;11.30;99.90;;;;;;5202862;28;20426;-53
2022/06/02 01:55:58;;;;;;;2.87;2.67;;;11.20;99.90;;;;;;5205319;28;20485;-53
2022/06/02 01:58:34;;;;;;;2.70;2.60;;;11.10;99.90;;;;;;5180666;28;20485;-53
2022/06/02 02:01:18;;;;;;;3.43;3.27;;;11.10;99.90;;;;;;5195027;28;20422;-54
2022/06/02 02:03:58;;;;;;;6.37;3.30;;;11.00;99.90;;;;;;5206333;28;20443;-53
2022/06/02 02:06:52;;;;;;;11.60;2.63;;;11.00;99.90;;;;;;5208123;28;20425;-54
2022/06/02 02:09:53;;;;;;;3.80;3.13;;;10.90;99.90;;;;;;5202828;28;20846;-53
2022/06/02 02:13:02;;;;;;;3.13;2.93;;;10.90;99.90;;;;;;5188744;28;20431;-52
2022/06/02 02:16:06;;;;;;;2.80;2.60;;;10.90;99.90;;;;;;5199423;28;20419;-53
2022/06/02 02:18:46;;;;;;;3.33;3.23;;;11.00;99.90;;;;;;5207014;28;20430;-55
2022/06/02 02:21:39;;;;;;;3.20;3.00;;;11.00;99.90;;;;;;5206401;28;20470;-52
2022/06/02 02:24:52;;;;;;;3.20;3.10;;;11.00;99.90;;;;;;5197649;28;20458;-54
2022/06/02 02:30:40;;;;;;;3.37;3.23;;;11.00;99.90;;;;;;5212203;28;20448;-54
2022/06/02 02:33:48;;;;;;;3.73;3.53;;;11.10;99.90;;;;;;5198189;28;20447;-55
2022/06/02 02:36:49;;;;;;;3.30;3.10;;;11.10;99.90;;;;;;5197275;28;20430;-53
2022/06/02 02:39:41;;;;;;;2.60;2.60;;;11.00;99.90;;;;;;5210496;28;20484;-53
2022/06/02 02:42:25;;;;;;;2.40;2.30;;;11.00;99.90;;;;;;5198520;28;20487;-52
2022/06/02 02:45:39;;;;;;;3.00;2.80;;;11.00;99.90;;;;;;5203972;28;20462;-52
2022/06/02 02:48:43;;;;;;;2.87;2.77;;;11.00;99.90;;;;;;5144003;28;20575;-54
2022/06/02 02:51:19;;;;;;;4.30;2.47;;;10.90;99.90;;;;;;5158616;28;20526;-53
2022/06/02 02:53:57;;;;;;;8.93;3.47;;;10.80;99.90;;;;;;5187812;28;20910;-54
2022/06/02 02:56:52;;;;;;;2.80;2.63;;;10.80;99.90;;;;;;5206192;28;20430;-54
2022/06/02 02:59:39;;;;;;;2.93;2.80;;;10.80;99.90;;;;;;5192198;28;20977;-53
2022/06/02 03:02:23;;;;;;;3.43;3.23;;;10.70;99.90;;;;;;5186674;28;20423;-55
2022/06/02 03:05:24;;;;;;;4.13;2.93;;;10.80;99.90;;;;;;5202880;28;20803;-53
2022/06/02 03:08:11;;;;;;;2.33;2.23;;;10.70;99.90;;;;;;5197298;28;20466;-53
2022/06/02 03:10:45;;;;;;;3.50;2.63;;;10.70;99.90;;;;;;5205249;28;20457;-53
2022/06/02 03:13:45;;;;;;;3.23;2.30;;;10.70;99.90;;;;;;5201781;28;20436;-54
2022/06/02 03:16:17;;;;;;;2.43;2.33;;;10.60;99.90;;;;;;5191385;28;20465;-54
2022/06/02 03:19:07;;;;;;;2.70;2.60;;;10.60;99.90;;;;;;5197832;28;20420;-55
2022/06/02 03:21:51;;;;;;;8.33;2.57;;;10.50;99.90;;;;;;5206506;28;20795;-53
2022/06/02 03:24:36;;;;;;;3.27;3.00;;;10.60;99.90;;;;;;5198373;28;20457;-54
2022/06/02 03:27:28;;;;;;;2.60;2.40;;;10.60;99.90;;;;;;5198603;28;20445;-55
2022/06/02 03:30:22;;;;;;;2.30;2.20;;;10.70;99.90;;;;;;5204902;28;20443;-54
2022/06/02 03:33:14;;;;;;;2.60;2.50;;;10.60;99.90;;;;;;5203338;28;20626;-53
2022/06/02 03:35:45;;;;;;;2.90;2.63;;;10.70;99.90;;;;;;5206195;28;20791;-54
2022/06/02 03:38:40;;;;;;;2.53;2.53;;;10.70;99.90;;;;;;5203476;28;20434;-54
2022/06/02 03:41:22;;;;;;;2.47;2.33;;;10.70;99.90;;;;;;5199034;28;20322;-54
2022/06/02 03:44:11;;;;;;;3.97;3.50;;;10.80;99.90;;;;;;5188149;28;20990;-53
2022/06/02 03:47:22;;;;;;;3.10;2.90;;;11.00;99.90;;;;;;5196616;28;20466;-55
2022/06/02 03:50:01;;;;;;;4.70;3.10;;;11.10;99.90;;;;;;5182080;28;20434;-57
2022/06/02 03:52:51;;;;;;;3.60;3.30;;;11.30;99.90;;;;;;5194464;28;20419;-53
2022/06/02 03:55:55;;;;;;;4.80;3.40;;;11.40;99.90;;;;;;5192190;28;20440;-54
2022/06/02 03:58:44;;;;;;;3.20;3.10;;;11.40;99.90;;;;;;5205926;28;20414;-55
2022/06/02 04:01:21;;;;;;;3.00;2.80;;;11.60;99.90;;;;;;5200962;28;20437;-56
2022/06/02 04:04:02;;;;;;;3.43;3.20;;;11.60;99.90;;;;;;5196515;28;20434;-54
2022/06/02 04:06:52;;;;;;;16.03;3.10;;;11.70;99.90;;;;;;5192954;28;20509;-54
2022/06/02 04:09:35;;;;;;;3.40;3.20;;;11.70;99.90;;;;;;5204043;28;20462;-53
2022/06/02 04:16:04;;;;;;;3.87;3.50;;;11.70;99.90;;;;;;5182416;28;20442;-53
2022/06/02 04:18:46;;;;;;;3.40;3.10;;;11.80;99.90;;;;;;5204153;28;20426;-54
2022/06/02 04:21:55;;;;;;;3.60;3.40;;;11.80;99.90;;;;;;5198270;28;20430;-54
2022/06/02 04:24:49;;;;;;;3.00;2.80;;;11.90;99.90;;;;;;5162173;28;20451;-53
2022/06/02 04:27:50;;;;;;;3.13;2.83;;;11.90;99.90;;;;;;5190141;28;20492;-53
2022/06/02 04:30:44;;;;;;;3.83;3.60;;;11.90;99.90;;;;;;5193657;28;20435;-53
2022/06/02 04:33:40;;;;;;;3.00;2.80;;;11.90;99.90;;;;;;5204923;28;20500;-54
2022/06/02 04:36:34;;;;;;;3.37;3.20;;;12.10;99.90;;;;;;5202341;28;20984;-55
2022/06/02 04:39:18;;;;;;;2.70;2.60;;;12.30;99.90;;;;;;5177471;28;20493;-53
2022/06/02 04:41:59;;;;;;;4.00;3.73;;;12.50;99.90;;;;;;5202206;28;20849;-52
2022/06/02 04:44:56;;;;;;;4.17;3.97;;;12.60;99.90;;;;;;5200608;28;20499;-55
2022/06/02 04:48:05;;;;;;;3.83;3.63;;;12.80;99.90;;;;;;5187167;28;20459;-54
2022/06/02 04:51:03;;;;;;;4.30;4.00;;;12.90;99.90;;;;;;5202256;28;20442;-53
2022/06/02 04:54:05;;;;;;;3.87;3.57;;;13.10;99.90;;;;;;5204265;28;20496;-53
2022/06/02 04:56:41;;;;;;;4.37;3.97;;;13.20;99.90;;;;;;5208167;28;20583;-54
2022/06/02 04:59:21;;;;;;;4.17;3.87;;;13.20;99.90;;;;;;5208255;28;20434;-53
2022/06/02 05:02:16;;;;;;;4.60;4.23;;;13.50;99.90;;;;;;5204369;28;21038;-52
2022/06/02 05:05:10;;;;;;;7.00;4.63;;;13.70;99.90;;;;;;5203359;28;20458;-53
2022/06/02 05:08:03;;;;;;;5.20;4.70;;;13.50;99.90;;;;;;5204771;28;20853;-53
2022/06/02 05:11:12;;;;;;;5.17;4.67;;;13.30;99.90;;;;;;5206597;28;20781;-55
2022/06/02 05:13:56;;;;;;;4.50;4.30;;;13.30;99.90;;;;;;5205245;28;20443;-54
2022/06/02 05:16:42;;;;;;;5.67;4.80;;;13.30;99.90;;;;;;5206941;28;20418;-54
2022/06/02 05:19:47;;;;;;;10.00;5.70;;;13.40;99.90;;;;;;5215767;28;20435;-54
2022/06/02 05:22:51;;;;;;;4.83;4.50;;;13.40;99.90;;;;;;5203744;28;20431;-54
2022/06/02 05:25:31;;;;;;;6.57;4.60;;;13.50;99.90;;;;;;5209790;28;20422;-54
2022/06/02 05:28:30;;;;;;;6.57;5.07;;;13.60;99.90;;;;;;5207612;28;20473;-54
2022/06/02 05:31:31;;;;;;;6.20;4.43;;;13.70;99.90;;;;;;5207018;28;20430;-55
2022/06/02 05:34:08;;;;;;;4.87;4.57;;;13.90;99.90;;;;;;5203203;28;20995;-53
2022/06/02 05:37:03;;;;;;;3.83;3.63;;;14.30;99.90;;;;;;5205327;28;20965;-55
2022/06/02 05:39:48;;;;;;;9.60;4.70;;;15.50;99.90;;;;;;5203409;28;20438;-54
2022/06/02 05:42:33;;;;;;;3.73;3.53;;;18.30;99.90;;;;;;5202838;28;20427;-54
2022/06/02 05:45:12;;;;;;;4.03;3.70;;;20.60;85.00;;;;;;5207486;23;20911;-48
2022/06/02 05:48:03;;;;;;;4.13;3.70;;;22.50;65.20;;;;;;5200459;28;20997;-49
2022/06/02 05:50:53;;;;;;;4.00;3.70;;;24.30;54.10;;;;;;5208605;28;20857;-48
2022/06/02 05:53:49;;;;;;;5.13;3.57;;;25.00;49.30;;;;;;5203620;28;20740;-49
2022/06/02 05:56:39;;;;;;;5.53;3.80;;;26.00;46.10;;;;;;5206792;28;20430;-49
2022/06/02 05:59:37;;;;;;;3.00;2.80;;;26.00;44.60;;;;;;5209491;28;20466;-49
2022/06/02 06:02:33;;;;;;;3.30;3.10;;;26.60;44.20;;;;;;5208179;28;20446;-48
2022/06/02 06:05:14;;;;;;;3.53;3.33;;;27.00;41.30;;;;;;5221074;28;20833;-48
2022/06/02 06:07:53;;;;;;;4.30;3.80;;;27.20;41.10;;;;;;5208429;28;20469;-49
2022/06/02 06:10:33;;;;;;;13.13;4.10;;;27.50;40.00;;;;;;5208190;28;20512;-49
2022/06/02 06:13:20;;;;;;;8.23;4.23;;;26.50;40.60;;;;;;5224095;28;20455;-48
2022/06/02 06:16:16;;;;;;;4.20;3.90;;;26.70;41.30;;;;;;5207556;28;20468;-48
2022/06/02 06:19:14;;;;;;;7.17;4.00;;;25.60;42.20;;;;;;5209085;28;20457;-49
2022/06/02 06:21:52;;;;;;;7.43;3.27;;;25.30;43.60;;;;;;5223753;28;20430;-48
2022/06/02 06:24:44;;;;;;;4.87;4.57;;;25.80;43.10;;;;;;5208721;28;20867;-49
2022/06/02 06:27:39;;;;;;;6.73;5.40;;;25.70;41.20;;;;;;5201532;28;20434;-48
2022/06/02 06:30:35;;;;;;;3.80;3.50;;;24.00;43.20;;;;;;5200170;28;20521;-49
2022/06/02 06:33:11;;;;;;;7.57;5.13;;;24.20;45.30;;;;;;5210411;28;20784;-49
2022/06/02 06:36:33;;;;;;;4.30;4.00;;;25.40;42.90;;;;;;5204504;28;20438;-49
2022/06/02 06:39:29;;;;;;;4.67;4.33;;;26.00;41.80;;;;;;5207410;28;20445;-49
2022/06/02 06:42:28;;;;;;;3.90;3.67;;;25.40;41.90;;;;;;5223942;28;20434;-53
2022/06/02 06:45:10;;;;;;;3.60;3.40;;;26.10;42.00;;;;;;5207441;28;20513;-47
2022/06/02 06:48:30;;;;;;;4.90;4.53;;;26.80;40.80;;;;;;5207801;28;20545;-48
2022/06/02 06:51:22;;;;;;;4.53;4.13;;;26.70;40.20;;;;;;5197190;28;20467;-48
2022/06/02 06:54:23;;;;;;;4.37;3.97;;;27.60;39.50;;;;;;5192774;28;20487;-49
2022/06/02 06:57:27;;;;;;;5.30;4.90;;;28.20;37.40;;;;;;5197853;28;20426;-48
2022/06/02 07:00:04;;;;;;;4.23;3.97;;;27.00;37.90;;;;;;5197554;28;20471;-49
2022/06/02 07:03:12;;;;;;;4.90;4.40;;;25.60;41.00;;;;;;5210772;28;20470;-49
2022/06/02 07:05:50;;;;;;;3.53;3.33;;;25.60;42.40;;;;;;5206894;28;20496;-49
2022/06/02 07:08:35;;;;;;;4.23;3.93;;;26.80;40.50;;;;;;5206813;28;20458;-48
2022/06/02 07:14:38;;;;;;;7.20;4.80;;;28.40;37.20;;;;;;5207324;28;20449;-49
2022/06/02 07:17:41;;;;;;;4.33;3.87;;;28.80;35.90;;;;;;5207132;28;20554;-50
2022/06/02 07:20:30;;;;;;;3.30;3.13;;;29.20;36.30;;;;;;5207032;28;20867;-51
2022/06/02 07:23:11;;;;;;;4.63;3.80;;;29.00;36.50;;;;;;5212808;28;20426;-50
2022/06/02 07:25:53;;;;;;;11.30;3.70;;;27.50;38.20;;;;;;5206890;28;20418;-49
2022/06/02 07:29:04;;;;;;;4.17;3.80;;;26.50;39.30;;;;;;5205153;28;20494;-48
2022/06/02 07:32:16;;;;;;;5.90;4.37;;;26.50;39.40;;;;;;5205860;28;20421;-48
2022/06/02 07:35:13;;;;;;;8.63;3.90;;;27.40;37.50;;;;;;5203100;28;20441;-49
2022/06/02 07:37:58;;;;;;;5.47;4.00;;;28.50;37.60;;;;;;5201297;28;20430;-48
2022/06/02 07:40:49;;;;;;;5.60;3.80;;;28.00;37.10;;;;;;5198755;28;20416;-49
2022/06/02 07:43:23;;;;;;;3.90;3.70;;;27.30;37.60;;;;;;5207365;28;20819;-49
2022/06/02 07:46:32;;;;;;;3.70;3.50;;;28.20;37.40;;;;;;5206562;28;20537;-49
2022/06/02 07:49:18;;;;;;;5.83;3.53;;;28.30;36.20;;;;;;5186813;28;20871;-49
2022/06/02 07:52:12;;;;;;;4.10;3.83;;;29.30;34.90;;;;;;5202506;28;21015;-48
2022/06/02 07:55:25;;;;;;;4.90;3.00;;;29.70;33.60;;;;;;5186113;28;20505;-49
2022/06/02 07:58:07;;;;;;;3.10;2.60;;;29.00;33.80;;;;;;5187694;28;20439;-48
2022/06/02 08:00:51;;;;;;;3.40;2.90;;;29.10;34.80;;;;;;5222103;28;20513;-48
2022/06/02 08:03:53;;;;;;;2.53;2.40;;;29.80;34.10;;;;;;5206081;28;20434;-52
2022/06/02 08:06:32;;;;;;;2.80;2.70;;;27.30;34.90;;;;;;5197582;28;20433;-49
2022/06/02 08:09:27;;;;;;;2.60;2.40;;;25.00;39.10;;;;;;5222804;28;20462;-49
2022/06/02 08:11:57;;;;;;;2.83;2.73;;;25.60;39.20;;;;;;5207292;28;20434;-50
2022/06/02 08:14:34;;;;;;;5.53;2.77;;;25.70;38.50;;;;;;5210378;28;20503;-50
2022/06/02 08:17:21;;;;;;;3.53;2.67;;;25.10;39.20;;;;;;5199351;28;20663;-48
2022/06/02 08:20:28;;;;;;;2.50;2.40;;;23.00;42.00;;;;;;5210188;28;20521;-52
2022/06/02 08:23:14;;;;;;;3.70;3.40;;;20.50;43.30;;;;;;5193505;28;20422;-51
2022/06/02 08:25:55;;;;;;;3.83;3.20;;;19.10;47.40;;;;;;5209516;28;20789;-48
2022/06/02 08:28:59;;;;;;;3.10;2.80;;;19.80;48.20;;;;;;5226341;28;20523;-48
2022/06/02 08:32:16;;;;;;;2.37;2.27;;;22.80;43.50;;;;;;5219474;28;20436;-49
2022/06/02 08:35:15;;;;;;;1.97;1.57;;;25.20;38.80;;;;;;5207855;28;20850;-48
2022/06/02 08:38:40;;;;;;;1.67;1.60;;;27.30;36.00;;;;;;5203121;28;20945;-50
2022/06/02 08:41:46;;;;;;;3.67;1.47;;;26.70;34.40;;;;;;5218490;28;20938;-48
2022/06/02 08:44:35;;;;;;;1.80;1.80;;;25.20;36.70;;;;;;5206029;28;20473;-49
2022/06/02 08:47:42;;;;;;;2.70;2.20;;;23.70;38.60;;;;;;5196297;28;20442;-50
2022/06/02 08:50:37;;;;;;;2.10;2.00;;;21.40;42.50;;;;;;5209700;28;20410;-48
2022/06/02 08:53:45;;;;;;;1.90;1.80;;;20.20;44.70;;;;;;5204420;28;20504;-51
2022/06/02 08:56:43;;;;;;;2.93;1.43;;;19.80;45.60;;;;;;5211300;28;20429;-51
2022/06/02 08:59:29;;;;;;;4.33;1.77;;;19.10;45.90;;;;;;5208550;28;20961;-50
2022/06/02 09:03:02;;;;;;;3.50;1.90;;;19.10;47.00;;;;;;5208810;28;20416;-51
2022/06/02 09:06:17;;;;;;;2.03;1.20;;;19.30;47.20;;;;;;5185938;28;20454;-49
2022/06/02 09:09:25;;;;;;;7.87;2.00;;;19.10;45.80;;;;;;5166562;28;20498;-50
2022/06/02 09:12:11;;;;;;;1.63;1.53;;;19.40;45.60;;;;;;5202235;28;20441;-50
2022/06/02 09:15:02;;;;;;;1.93;1.83;;;19.70;44.60;;;;;;5224090;28;20779;-50
2022/06/02 09:17:45;;;;;;;8.03;1.80;;;19.30;44.10;;;;;;5201693;28;20437;-51
2022/06/02 09:20:47;;;;;;;3.57;1.73;;;19.10;44.30;;;;;;5208703;28;20552;-49
2022/06/02 09:23:36;;;;;;;4.53;1.80;;;18.80;44.50;;;;;;5207974;28;20418;-50
2022/06/02 09:26:34;;;;;;;5.70;1.90;;;18.40;45.80;;;;;;5208628;28;20922;-48
2022/06/02 09:29:24;;;;;;;1.67;1.67;;;18.70;45.80;;;;;;5203618;28;20516;-49
2022/06/02 09:32:24;;;;;;;3.67;1.53;;;18.70;45.00;;;;;;5198948;28;20837;-48
2022/06/02 09:35:17;;;;;;;1.60;1.57;;;19.30;45.80;;;;;;5198411;28;20798;-49
2022/06/02 09:38:09;;;;;;;1.13;1.13;;;19.90;45.60;;;;;;5211631;28;20411;-48
2022/06/02 09:40:47;;;;;;;2.20;1.47;;;20.30;44.40;;;;;;5205688;28;20434;-48
2022/06/02 09:43:44;;;;;;;5.43;1.27;;;20.30;43.40;;;;;;5210527;28;20513;-48
2022/06/02 09:46:40;;;;;;;2.53;1.97;;;20.10;44.60;;;;;;5227239;28;20456;-48
2022/06/02 09:49:13;;;;;;;3.40;1.37;;;20.10;43.00;;;;;;5226366;28;20466;-49
2022/06/02 09:51:59;;;;;;;2.40;1.80;;;19.80;41.70;;;;;;5204496;28;20574;-49
2022/06/02 09:54:54;;;;;;;1.63;1.20;;;19.30;42.80;;;;;;5208300;28;20454;-48
2022/06/02 09:57:55;;;;;;;2.90;1.37;;;19.00;44.00;;;;;;5210192;28;20857;-48
2022/06/02 10:00:57;;;;;;;1.63;1.30;;;18.90;45.10;;;;;;5208951;28;20998;-49
2022/06/02 10:03:58;;;;;;;3.60;3.33;;;19.20;45.20;;;;;;5208526;28;20461;-49
2022/06/02 10:06:59;;;;;;;3.80;1.80;;;19.20;44.80;;;;;;5209577;28;20433;-48
2022/06/02 10:09:43;;;;;;;4.23;1.40;;;18.70;45.30;;;;;;5208257;28;20516;-50
2022/06/02 10:12:55;;;;;;;5.60;2.40;;;18.40;45.50;;;;;;5196049;28;20438;-48
2022/06/02 10:15:44;;;;;;;3.30;2.10;;;18.20;46.50;;;;;;5206789;28;20485;-49
2022/06/02 10:18:46;;;;;;;4.90;3.90;;;18.10;46.00;;;;;;5197650;28;20542;-49
2022/06/02 10:21:29;;;;;;;2.70;2.50;;;18.00;46.30;;;;;;5208385;28;20464;-49
2022/06/02 10:24:24;;;;;;;1.40;1.30;;;18.30;46.20;;;;;;5210363;28;20466;-49
2022/06/02 10:27:03;;;;;;;2.03;1.30;;;18.40;45.90;;;;;;5209267;28;20430;-49
2022/06/02 10:30:11;;;;;;;1.57;1.47;;;18.40;45.10;;;;;;5208254;28;20488;-48
2022/06/02 10:32:59;;;;;;;3.07;1.57;;;18.20;45.40;;;;;;5208271;28;20462;-48
2022/06/02 10:36:05;;;;;;;2.00;1.90;;;18.10;46.50;;;;;;5209110;28;21001;-48
2022/06/02 10:39:05;;;;;;;4.60;3.00;;;18.40;46.70;;;;;;5228651;28;20489;-48
2022/06/02 10:42:01;;;;;;;4.47;3.13;;;18.70;45.60;;;;;;5223947;28;20435;-48
2022/06/02 10:45:18;;;;;;;3.10;2.80;;;19.00;45.30;;;;;;5207115;28;20474;-48
2022/06/02 10:47:59;;;;;;;10.30;3.40;;;19.20;45.00;;;;;;5213490;28;20458;-48
2022/06/02 10:50:40;;;;;;;7.50;3.00;;;18.90;45.50;;;;;;5208567;28;20930;-49
2022/06/02 10:53:43;;;;;;;12.47;1.80;;;18.60;45.20;;;;;;5208582;28;20429;-45
2022/06/02 10:56:34;;;;;;;11.37;3.87;;;18.50;45.90;;;;;;5207298;28;20421;-49
2022/06/02 10:59:25;;;;;;;4.33;3.50;;;18.40;46.40;;;;;;5203458;28;20467;-49
2022/06/02 11:02:25;;;;;;;7.23;4.60;;;18.40;46.20;;;;;;5214946;28;20430;-48
2022/06/02 11:05:11;;;;;;;4.50;3.30;;;18.80;45.50;;;;;;5201950;28;20438;-49
2022/06/02 11:08:03;;;;;;;3.33;2.17;;;19.00;44.30;;;;;;5207265;28;20574;-49
2022/06/02 11:11:11;;;;;;;5.47;3.37;;;19.30;44.30;;;;;;5220202;28;20795;-48
2022/06/02 11:14:13;;;;;;;4.27;2.27;;;19.70;44.40;;;;;;5217700;28;20435;-49
2022/06/02 11:16:47;;;;;;;5.67;2.37;;;20.10;43.50;;;;;;5206597;28;20429;-56
2022/06/02 11:19:40;;;;;;;11.47;2.43;;;20.50;43.60;;;;;;5222484;28;20449;-49
2022/06/02 11:22:46;;;;;;;2.63;1.10;;;20.60;41.60;;;;;;5207316;28;20430;-48
2022/06/02 11:25:22;;;;;;;9.77;5.13;;;20.30;41.10;;;;;;5205791;28;20533;-48
2022/06/02 11:28:02;;;;;;;5.03;2.10;;;20.10;41.40;;;;;;5222264;28;20541;-48
2022/06/02 11:30:50;;;;;;;1.70;1.63;;;20.10;41.70;;;;;;5207732;28;20461;-48
2022/06/02 11:33:37;;;;;;;6.40;3.00;;;19.50;41.80;;;;;;5206764;28;20462;-49
2022/06/02 11:36:34;;;;;;;2.60;2.03;;;19.40;42.70;;;;;;5217948;28;20435;-49
2022/06/02 11:39:16;;;;;;;1.47;1.37;;;19.60;43.00;;;;;;5206545;28;20453;-49
2022/06/02 11:42:06;;;;;;;4.00;1.73;;;19.50;41.40;;;;;;5206536;28;20438;-48
2022/06/02 11:45:18;;;;;;;3.13;2.93;;;19.60;41.90;;;;;;5204889;22;20809;-53
2022/06/02 11:48:16;;;;;;;3.50;2.00;;;19.70;42.20;;;;;;5160478;28;20465;-52
2022/06/02 11:50:46;;;;;;;2.93;1.07;;;19.80;41.10;;;;;;5158085;28;20479;-53
2022/06/02 11:53:54;;;;;;;0.93;0.80;;;19.80;40.60;;;;;;5158190;28;20444;-51
2022/06/02 11:56:46;;;;;;;1.00;1.00;;;20.00;40.30;;;;;;5143297;28;20264;-57
2022/06/02 12:00:02;;;;;;;0.90;0.90;;;20.20;39.40;;;;;;5141071;28;20425;-51
2022/06/02 12:02:35;;;;;;;1.90;1.10;;;20.40;39.40;;;;;;5135957;28;20428;-52
2022/06/02 12:05:30;;;;;;;1.60;1.43;;;20.30;39.50;;;;;;5143112;28;20445;-52
2022/06/02 12:08:23;;;;;;;0.80;0.80;;;20.20;39.60;;;;;;5148875;28;20464;-53
2022/06/02 12:11:08;;;;;;;2.87;1.10;;;19.90;40.00;;;;;;5147353;28;20615;-51
2022/06/02 12:13:44;;;;;;;1.57;1.47;;;19.70;39.80;;;;;;5148050;28;20432;-51
2022/06/02 12:16:30;;;;;;;8.97;6.77;;;19.80;40.10;;;;;;5148444;28;21005;-52
2022/06/02 12:19:51;;;;;;;1.47;1.37;;;19.90;40.70;;;;;;5148045;28;20443;-51
2022/06/02 12:22:40;;;;;;;1.63;1.50;;;19.80;40.20;;;;;;5162042;28;20784;-58
2022/06/02 12:25:25;;;;;;;2.97;1.30;;;19.60;40.80;;;;;;5144978;28;20552;-51
2022/06/02 12:28:33;;;;;;;2.63;0.90;;;19.70;40.50;;;;;;5147343;28;20487;-51
2022/06/02 12:31:25;;;;;;;3.67;1.40;;;19.60;40.10;;;;;;5147494;28;20480;-52
2022/06/02 12:34:17;;;;;;;1.13;1.13;;;19.50;40.30;;;;;;5147444;28;20480;-51
2022/06/02 12:37:18;;;;;;;1.90;1.00;;;19.50;39.90;;;;;;5146966;28;20536;-50
2022/06/02 12:40:03;;;;;;;1.70;0.67;;;19.40;39.20;;;;;;5147935;28;20448;-53
2022/06/02 12:42:56;;;;;;;1.00;1.00;;;19.40;39.50;;;;;;5148638;28;20464;-51
2022/06/02 12:45:45;;;;;;;4.17;1.10;;;19.50;40.40;;;;;;5148858;28;20467;-51
2022/06/02 12:48:51;;;;;;;2.07;1.43;;;19.80;40.50;;;;;;5141361;28;20834;-51
2022/06/02 12:52:01;;;;;;;3.50;0.83;;;20.00;39.10;;;;;;5157229;28;20791;-52
2022/06/02 12:55:13;;;;;;;0.97;0.97;;;20.10;39.20;;;;;;5148169;28;20448;-51
2022/06/02 12:57:44;;;;;;;5.07;3.63;;;20.10;38.20;;;;;;5146708;28;20842;-53
2022/06/02 13:00:27;;;;;;;1.13;1.13;;;20.10;37.10;;;;;;5150053;28;20443;-51
2022/06/02 13:03:39;;;;;;;1.30;1.20;;;20.00;37.50;;;;;;5148428;28;20402;-52
2022/06/02 13:06:47;;;;;;;0.77;0.77;;;19.90;38.00;;;;;;5146459;28;20527;-51
2022/06/02 13:09:35;;;;;;;4.63;0.90;;;19.50;37.10;;;;;;5146132;28;20460;-52
2022/06/02 13:12:27;;;;;;;0.70;0.70;;;19.20;36.70;;;;;;5140748;28;20853;-50
2022/06/02 13:15:18;;;;;;;1.10;1.00;;;19.10;37.00;;;;;;5147262;28;20433;-51
2022/06/02 13:18:07;;;;;;;1.20;1.10;;;19.20;37.50;;;;;;5147727;28;20441;-51
2022/06/02 13:21:16;;;;;;;3.90;1.10;;;19.40;38.10;;;;;;5145431;28;20424;-52
2022/06/02 13:24:32;;;;;;;3.70;1.13;;;19.70;38.30;;;;;;5139884;28;20457;-51
2022/06/02 13:27:31;;;;;;;1.20;1.20;;;19.90;38.20;;;;;;5144127;28;20456;-52
2022/06/02 13:30:20;;;;;;;3.87;1.33;;;19.90;37.70;;;;;;5133461;28;20477;-52
2022/06/02 13:33:32;;;;;;;1.30;1.30;;;19.70;37.70;;;;;;5148001;28;20413;-51
2022/06/02 13:36:39;;;;;;;1.20;1.20;;;19.50;37.80;;;;;;5148219;28;20413;-51
2022/06/02 13:39:29;;;;;;;2.10;1.60;;;19.80;38.40;;;;;;5156653;28;20445;-51
2022/06/02 13:42:22;;;;;;;1.97;1.87;;;20.30;38.60;;;;;;5161780;28;20839;-52
2022/06/02 13:45:29;;;;;;;1.00;1.00;;;20.80;37.20;;;;;;5149531;28;20469;-51
2022/06/02 13:48:24;;;;;;;1.70;1.60;;;20.80;37.30;;;;;;5142627;28;21020;-51
2022/06/02 13:51:13;;;;;;;3.30;2.90;;;20.40;37.40;;;;;;5146048;28;20512;-51
2022/06/02 14:00:10;;;;;;;1.20;1.10;;;19.90;39.30;;;;;;5135256;28;20897;-52
2022/06/02 14:02:58;;;;;;;2.63;1.27;;;19.90;39.70;;;;;;5145937;28;20428;-51
2022/06/02 14:06:05;;;;;;;1.10;1.03;;;20.10;39.40;;;;;;5139468;28;20456;-51
2022/06/02 14:08:49;;;;;;;2.60;1.20;;;20.60;39.30;;;;;;5139074;28;20983;-51
2022/06/02 14:11:49;;;;;;;1.27;1.17;;;20.50;38.90;;;;;;5140845;28;20425;-52
2022/06/02 14:14:53;;;;;;;1.30;1.03;;;20.30;39.00;;;;;;5146591;28;20464;-53
2022/06/02 14:17:40;;;;;;;1.03;1.03;;;20.20;39.40;;;;;;5145169;28;20451;-53
2022/06/02 14:20:28;;;;;;;13.83;8.70;;;20.20;39.80;;;;;;5146132;28;20881;-52
2022/06/02 14:23:01;;;;;;;12.57;5.47;;;20.00;40.10;;;;;;5144711;28;20447;-50
2022/06/02 14:25:44;;;;;;;2.00;1.80;;;19.80;40.50;;;;;;5145421;28;20441;-53
2022/06/02 14:28:42;;;;;;;2.97;2.70;;;19.70;41.00;;;;;;5144926;28;20472;-51
2022/06/02 14:31:32;;;;;;;3.87;3.50;;;19.70;41.30;;;;;;5145288;28;20468;-51
2022/06/02 14:34:23;;;;;;;12.23;4.30;;;19.80;40.40;;;;;;5146506;28;20449;-52
2022/06/02 14:37:22;;;;;;;8.13;5.13;;;20.00;40.50;;;;;;5145931;28;20484;-51
2022/06/02 14:40:05;;;;;;;1.73;1.43;;;20.00;40.40;;;;;;5140536;28;20433;-52
2022/06/02 14:43:07;;;;;;;3.30;2.50;;;19.80;40.30;;;;;;5144980;28;20436;-51
2022/06/02 14:46:03;;;;;;;1.50;1.50;;;19.80;41.50;;;;;;5151633;28;20542;-53
2022/06/02 14:48:49;;;;;;;1.10;1.10;;;19.90;41.10;;;;;;5138765;28;20821;-53
2022/06/02 14:51:32;;;;;;;5.13;4.53;;;19.70;41.50;;;;;;5158684;28;20443;-55
2022/06/02 14:54:30;;;;;;;3.00;2.80;;;19.70;41.40;;;;;;5144271;28;20899;-53
2022/06/02 14:57:38;;;;;;;4.17;2.03;;;19.90;41.80;;;;;;5137282;28;20417;-53
2022/06/02 15:00:17;;;;;;;1.03;1.03;;;19.90;41.10;;;;;;5152673;28;20448;-51
2022/06/02 15:03:03;;;;;;;4.10;3.40;;;19.80;41.00;;;;;;5151001;28;20432;-52
2022/06/02 15:06:01;;;;;;;3.47;3.17;;;19.80;41.10;;;;;;5141390;28;20473;-51
2022/06/02 15:08:56;;;;;;;2.13;2.03;;;19.90;41.70;;;;;;5145743;28;20500;-50
2022/06/02 15:11:49;;;;;;;0.83;0.83;;;20.00;40.70;;;;;;5145776;28;20457;-52
2022/06/02 15:14:24;;;;;;;3.60;1.10;;;20.10;40.40;;;;;;5144779;28;20969;-50